createdAt,value
2022-12-09T00:00:05.992Z,99519.03
2022-12-09T00:02:35.585Z,99528.94
2022-12-09T00:05:03.587Z,99526.50
2022-12-09T00:07:31.488Z,99526.50
2022-12-09T00:09:59.525Z,99521.13
2022-12-09T00:13:04.393Z,99527.31
2022-12-09T00:15:32.128Z,99535.59
2022-12-09T00:18:01.346Z,99536.44
2022-12-09T00:20:29.727Z,99539.34
2022-12-09T00:22:58.033Z,99539.34
2022-12-09T00:25:25.806Z,99537.47
2022-12-09T00:27:53.646Z,99542.88
2022-12-09T00:30:21.300Z,99535.84
2022-12-09T00:32:50.591Z,99532.34
2022-12-09T00:35:19.642Z,99532.34
2022-12-09T00:37:47.243Z,99526.94
2022-12-09T00:40:15.179Z,99532.34
2022-12-09T00:46:05.372Z,99525.91
2022-12-09T00:48:34.461Z,99527.53
2022-12-09T00:51:03.989Z,99520.31
2022-12-09T00:53:31.724Z,99528.13
2022-12-09T00:55:59.699Z,99529.81
2022-12-09T00:59:22.491Z,99527.31
2022-12-09T01:01:50.257Z,99529.19
2022-12-09T01:04:18.707Z,99541.00
2022-12-09T01:06:48.064Z,99539.34
2022-12-09T01:09:16.099Z,99543.09
2022-12-09T01:12:23.722Z,99543.09
2022-12-09T01:14:51.459Z,99543.09
2022-12-09T01:17:19.321Z,99537.72
2022-12-09T01:19:47.154Z,99527.97
2022-12-09T01:22:16.222Z,99529.66
2022-12-09T01:24:43.909Z,99519.91
2022-12-09T01:27:11.668Z,99525.28
2022-12-09T01:29:39.507Z,99520.97
2022-12-09T01:32:07.464Z,99518.28
2022-12-09T01:34:35.309Z,99519.09
2022-12-09T01:37:03.716Z,99520.16
2022-12-09T01:39:32.778Z,99516.63
2022-12-09T01:45:46.832Z,99511.25
2022-12-09T01:48:15.502Z,99502.94
2022-12-09T01:50:44.589Z,99509.13
2022-12-09T01:53:12.449Z,99505.41
2022-12-09T01:55:41.526Z,99505.41
2022-12-09T01:58:09.214Z,99500.63
2022-12-09T02:00:37.006Z,99490.09
2022-12-09T02:03:04.875Z,99491.72
2022-12-09T02:05:32.704Z,99484.47
2022-12-09T02:08:00.796Z,99476.84
2022-12-09T02:10:28.628Z,99471.47
2022-12-09T02:16:42.120Z,99457.44
2022-12-09T02:19:13.174Z,99445.00
2022-12-09T02:21:42.961Z,99437.97
2022-12-09T02:24:13.591Z,99439.88
2022-12-09T02:30:14.362Z,99457.03
2022-12-09T02:32:51.412Z,99464.28
2022-12-09T02:35:21.464Z,99465.09
2022-12-09T02:37:50.525Z,99457.03
2022-12-09T02:40:19.495Z,99444.63
2022-12-09T02:46:19.960Z,99442.97
2022-12-09T02:48:48.826Z,99435.97
2022-12-09T02:51:18.760Z,99444.03
2022-12-09T02:53:46.749Z,99438.66
2022-12-09T02:56:14.473Z,99442.16
2022-12-09T02:58:42.247Z,99442.97
2022-12-09T03:01:20.375Z,99433.88
2022-12-09T03:03:48.325Z,99430.94
2022-12-09T03:06:16.257Z,99430.94
2022-12-09T03:08:47.490Z,99411.88
2022-12-09T03:11:15.929Z,99421.03
2022-12-09T03:17:25.254Z,99416.47
2022-12-09T03:19:54.230Z,99419.34
2022-12-09T03:22:22.359Z,99430.13
2022-12-09T03:24:51.534Z,99427.69
2022-12-09T03:27:39.104Z,99422.28
2022-12-09T03:30:09.129Z,99424.38
2022-12-09T03:32:37.692Z,99421.69
2022-12-09T03:35:06.361Z,99427.06
2022-12-09T03:37:34.405Z,99420.03
2022-12-09T03:40:07.118Z,99415.72
2022-12-09T03:42:38.818Z,99407.63
2022-12-09T03:45:06.935Z,99398.75
2022-12-09T03:47:34.904Z,99409.50
2022-12-09T03:50:02.834Z,99409.50
2022-12-09T03:52:32.326Z,99408.69
2022-12-09T03:55:01.038Z,99407.84
2022-12-09T04:01:02.191Z,99391.69
2022-12-09T04:03:30.099Z,99407.03
2022-12-09T04:05:57.960Z,99407.84
2022-12-09T04:08:25.959Z,99393.38
2022-12-09T04:10:54.020Z,99403.31
2022-12-09T04:13:21.723Z,99399.56
2022-12-09T04:15:49.326Z,99386.72
2022-12-09T04:18:18.736Z,99384.00
2022-12-09T04:20:46.568Z,99381.06
2022-12-09T04:23:14.561Z,99371.16
2022-12-09T04:25:42.289Z,99366.81
2022-12-09T04:31:41.810Z,99365.19
2022-12-09T04:34:11.513Z,99379.66
2022-12-09T04:36:39.595Z,99371.84
2022-12-09T04:39:07.549Z,99380.94
2022-12-09T04:41:35.403Z,99374.75
2022-12-09T04:44:03.161Z,99384.69
2022-12-09T04:46:31.026Z,99382.00
2022-12-09T04:48:58.983Z,99375.78
2022-12-09T04:51:29.023Z,99366.91
2022-12-09T04:53:59.420Z,99363.41
2022-12-09T04:56:27.249Z,99368.78
2022-12-09T04:58:54.975Z,99369.00
2022-12-09T05:01:29.849Z,99364.44
2022-12-09T05:03:59.318Z,99365.50
2022-12-09T05:06:29.442Z,99362.81
2022-12-09T05:08:57.435Z,99365.50
2022-12-09T05:11:25.292Z,99361.97
2022-12-09T05:17:25.700Z,99368.19
2022-12-09T05:19:53.785Z,99368.19
2022-12-09T05:22:22.913Z,99365.03
2022-12-09T05:24:50.845Z,99366.66
2022-12-09T05:27:18.553Z,99364.78
2022-12-09T05:33:08.706Z,99370.16
2022-12-09T05:35:47.632Z,99374.75
2022-12-09T05:38:20.786Z,99371.47
2022-12-09T05:40:48.516Z,99382.25
2022-12-09T05:47:17.821Z,99371.91
2022-12-09T05:49:46.185Z,99379.97
2022-12-09T05:52:14.701Z,99378.34
2022-12-09T05:54:43.858Z,99375.66
2022-12-09T05:57:12.203Z,99364.88
2022-12-09T05:59:40.282Z,99368.41
2022-12-09T06:02:10.217Z,99381.03
2022-12-09T06:04:38.597Z,99379.97
2022-12-09T06:07:06.965Z,99379.97
2022-12-09T06:09:35.400Z,99371.91
2022-12-09T06:12:04.873Z,99377.28
2022-12-09T06:14:33.122Z,99377.88
2022-12-09T06:17:00.971Z,99377.06
2022-12-09T06:19:28.961Z,99372.75
2022-12-09T06:21:57.194Z,99385.16
2022-12-09T06:24:25.146Z,99376.25
2022-12-09T06:26:54.430Z,99384.94
2022-12-09T06:29:26.441Z,99380.13
2022-12-09T06:31:54.277Z,99384.47
2022-12-09T06:34:22.335Z,99378.03
2022-12-09T06:36:50.361Z,99383.41
2022-12-09T06:39:18.298Z,99378.03
2022-12-09T06:41:46.161Z,99375.94
2022-12-09T06:44:20.009Z,99380.72
2022-12-09T06:46:52.948Z,99388.78
2022-12-09T06:49:20.887Z,99381.53
2022-12-09T06:51:49.219Z,99385.28
2022-12-09T06:54:17.291Z,99378.03
2022-12-09T06:56:45.370Z,99378.84
2022-12-09T07:02:46.146Z,99374.53
2022-12-09T07:05:14.339Z,99377.22
2022-12-09T07:07:42.693Z,99378.03
2022-12-09T07:10:10.883Z,99371.84
2022-12-09T07:12:39.029Z,99369.97
2022-12-09T07:18:41.313Z,99361.88
2022-12-09T07:21:10.011Z,99362.69
2022-12-09T07:23:37.756Z,99351.94
2022-12-09T07:26:07.393Z,99351.13
2022-12-09T07:35:40.900Z,99340.72
2022-12-09T07:38:08.670Z,99334.50
2022-12-09T07:40:38.137Z,99326.22
2022-12-09T07:50:10.510Z,99332.41
2022-12-09T07:52:39.728Z,99337.19
2022-12-09T07:55:08.571Z,99346.94
2022-12-09T07:57:38.655Z,99346.09
2022-12-09T08:00:08.097Z,99346.09
2022-12-09T08:02:36.055Z,99355.22
2022-12-09T08:05:04.232Z,99347.97
2022-12-09T08:07:35.576Z,99349.63
2022-12-09T08:10:09.308Z,99340.72
2022-12-09T08:12:37.503Z,99339.91
2022-12-09T08:15:06.703Z,99330.78
2022-12-09T08:17:35.016Z,99321.06
2022-12-09T08:20:03.187Z,99322.72
2022-12-09T08:22:31.203Z,99321.88
2022-12-09T08:24:59.602Z,99326.22
2022-12-09T08:27:28.923Z,99322.72
2022-12-09T08:29:57.040Z,99325.41
2022-12-09T08:32:24.985Z,99320.03
2022-12-09T08:34:53.165Z,99315.47
2022-12-09T08:37:21.172Z,99310.09
2022-12-09T08:39:49.040Z,99307.13
2022-12-09T08:42:17.011Z,99305.28
2022-12-09T08:48:19.077Z,99320.16
2022-12-09T08:50:47.017Z,99315.59
2022-12-09T08:53:15.344Z,99311.03
2022-12-09T08:55:43.683Z,99321.78
2022-12-09T08:58:12.155Z,99324.50
2022-12-09T09:04:14.554Z,99305.06
2022-12-09T09:06:45.183Z,99299.66
2022-12-09T09:09:14.150Z,99295.34
2022-12-09T09:11:42.244Z,99287.50
2022-12-09T09:14:50.355Z,99278.59
2022-12-09T09:17:18.065Z,99267.03
2022-12-09T09:19:47.332Z,99267.84
2022-12-09T09:22:15.733Z,99264.34
2022-12-09T09:24:43.615Z,99260.81
2022-12-09T09:27:11.542Z,99260.81
2022-12-09T09:29:39.748Z,99258.13
2022-12-09T09:32:08.318Z,99245.72
2022-12-09T09:34:37.045Z,99243.84
2022-12-09T09:37:06.309Z,99238.44
2022-12-09T09:39:34.185Z,99244.69
2022-12-09T09:42:08.050Z,99240.94
2022-12-09T09:44:38.766Z,99235.31
2022-12-09T09:47:07.741Z,99229.69
2022-12-09T09:49:37.494Z,99219.75
2022-12-09T09:52:08.071Z,99223.84
2022-12-09T09:54:36.421Z,99213.06
2022-12-09T09:57:06.387Z,99213.06
2022-12-09T10:03:12.137Z,99198.00
2022-12-09T10:05:42.535Z,99191.78
2022-12-09T10:08:26.133Z,99182.06
2022-12-09T10:10:56.951Z,99179.38
2022-12-09T10:13:28.716Z,99177.53
2022-12-09T10:16:00.677Z,99176.69
2022-12-09T10:18:29.698Z,99174.84
2022-12-09T10:20:58.088Z,99180.22
2022-12-09T10:23:27.686Z,99165.69
2022-12-09T10:25:56.647Z,99165.91
2022-12-09T10:28:24.846Z,99169.44
2022-12-09T10:30:54.493Z,99161.38
2022-12-09T10:33:24.275Z,99156.00
2022-12-09T10:35:52.771Z,99161.38
2022-12-09T10:38:20.867Z,99150.63
2022-12-09T10:40:53.761Z,99144.38
2022-12-09T10:43:38.757Z,99142.53
2022-12-09T10:49:39.396Z,99132.34
2022-12-09T10:52:07.240Z,99124.03
2022-12-09T10:54:36.434Z,99125.66
2022-12-09T10:57:07.267Z,99131.06
2022-12-09T10:59:56.745Z,99135.16
2022-12-09T11:02:24.865Z,99128.16
2022-12-09T11:04:52.960Z,99144.28
2022-12-09T11:07:23.885Z,99127.31
2022-12-09T11:09:52.481Z,99126.50
2022-12-09T11:12:40.092Z,99132.94
2022-12-09T11:15:47.104Z,99124.84
2022-12-09T11:18:17.717Z,99111.41
2022-12-09T11:20:56.222Z,99131.31
2022-12-09T11:23:24.008Z,99113.28
2022-12-09T11:25:53.443Z,99116.78
2022-12-09T11:28:27.049Z,99108.72
2022-12-09T11:34:28.230Z,99075.59
2022-12-09T11:36:58.417Z,99069.41
2022-12-09T11:39:27.222Z,99071.03
2022-12-09T11:42:17.226Z,99059.47
2022-12-09T11:45:23.798Z,99059.47
2022-12-09T11:48:25.760Z,99054.06
2022-12-09T11:50:45.012Z,99046.00
2022-12-09T11:53:19.181Z,99038.75
2022-12-09T11:55:48.078Z,99033.34
2022-12-09T11:58:16.394Z,99033.34
2022-12-09T12:01:06.921Z,99019.66
2022-12-09T12:03:37.995Z,99025.06
2022-12-09T12:06:07.493Z,99021.53
2022-12-09T12:08:37.913Z,99018.84
2022-12-09T12:11:11.973Z,99018.84
2022-12-09T12:13:43.447Z,99025.06
2022-12-09T12:16:12.495Z,99013.44
2022-12-09T12:18:42.989Z,99007.25
2022-12-09T12:21:29.525Z,99012.41
2022-12-09T12:24:17.899Z,99008.06
2022-12-09T12:26:47.707Z,99007.25
2022-12-09T12:29:20.982Z,99015.09
2022-12-09T12:35:26.480Z,98998.97
2022-12-09T12:37:56.929Z,98999.78
2022-12-09T12:40:30.929Z,98992.75
2022-12-09T12:43:18.368Z,98984.44
2022-12-09T12:49:49.202Z,98989.34
2022-12-09T12:55:17.297Z,98989.91
2022-12-09T12:57:46.996Z,98973.53
2022-12-09T13:00:16.272Z,98961.97
2022-12-09T13:02:46.263Z,98966.28
2022-12-09T13:05:15.752Z,98968.97
2022-12-09T13:07:47.370Z,98970.63
2022-12-09T13:10:17.836Z,98970.63
2022-12-09T13:12:59.412Z,98970.63
2022-12-09T13:15:32.073Z,98969.78
2022-12-09T13:18:01.557Z,98964.66
2022-12-09T13:20:30.258Z,98971.09
2022-12-09T13:23:06.998Z,98968.38
2022-12-09T13:25:37.218Z,98963.25
2022-12-09T13:28:05.561Z,98974.84
2022-12-09T13:30:54.184Z,98964.06
2022-12-09T13:33:30.187Z,98959.72
2022-12-09T13:36:04.017Z,98963.25
2022-12-09T13:38:39.585Z,98947.94
2022-12-09T13:41:26.859Z,98962.41
2022-12-09T13:43:54.530Z,98955.41
2022-12-09T13:46:22.988Z,98953.31
2022-12-09T13:48:50.749Z,98948.75
2022-12-09T13:51:19.170Z,98949.81
2022-12-09T13:53:49.669Z,98952.50
2022-12-09T13:56:22.628Z,98948.97
2022-12-09T13:59:08.801Z,98947.94
2022-12-09T14:05:09.756Z,98952.00
2022-12-09T14:07:41.005Z,98946.41
2022-12-09T14:10:32.717Z,98950.13
2022-12-09T14:13:19.596Z,98952.63
2022-12-09T14:15:47.436Z,98954.47
2022-12-09T14:18:30.692Z,98949.09
2022-12-09T14:21:17.610Z,98947.44
2022-12-09T14:24:00.610Z,98936.91
2022-12-09T14:26:36.344Z,98934.22
2022-12-09T14:29:04.019Z,98933.41
2022-12-09T14:32:00.039Z,98926.38
2022-12-09T14:34:28.918Z,98924.75
2022-12-09T14:37:00.008Z,98930.97
2022-12-09T14:39:28.594Z,98914.81
2022-12-09T14:42:00.342Z,98917.50
2022-12-09T14:44:29.479Z,98912.94
2022-12-09T14:47:13.556Z,98904.84
2022-12-09T14:49:48.505Z,98905.91
2022-12-09T14:52:21.510Z,98903.22
2022-12-09T14:54:49.202Z,98900.50
2022-12-09T14:57:21.116Z,98896.19
2022-12-09T14:59:50.314Z,98894.31
2022-12-09T15:02:21.262Z,98890.81
2022-12-09T15:04:49.282Z,98897.00
2022-12-09T15:07:18.768Z,98893.28
2022-12-09T15:09:50.234Z,98884.13
2022-12-09T15:12:20.105Z,98891.16
2022-12-09T15:14:47.757Z,98883.91
2022-12-09T15:20:50.217Z,98884.50
2022-12-09T15:23:19.162Z,98886.34
2022-12-09T15:25:47.439Z,98873.72
2022-12-09T15:28:21.447Z,98875.56
2022-12-09T15:31:12.397Z,98862.38
2022-12-09T15:33:41.210Z,98864.22
2022-12-09T15:36:09.337Z,98874.19
2022-12-09T15:38:40.843Z,98857.22
2022-12-09T15:41:26.655Z,98849.97
2022-12-09T15:43:56.507Z,98839.44
2022-12-09T15:49:48.208Z,98845.66
2022-12-09T15:52:16.571Z,98845.66
2022-12-09T15:54:44.315Z,98850.22
2022-12-09T15:57:12.411Z,98845.66
2022-12-09T15:59:43.091Z,98835.91
2022-12-09T16:02:11.041Z,98832.19
2022-12-09T16:04:40.188Z,98829.72
2022-12-09T16:07:08.913Z,98821.66
2022-12-09T16:09:39.280Z,98829.72
2022-12-09T16:12:13.896Z,98822.47
2022-12-09T16:14:44.586Z,98817.09
2022-12-09T16:20:57.633Z,98820.34
2022-12-09T16:23:26.366Z,98814.75
2022-12-09T16:25:59.327Z,98809.38
2022-12-09T16:28:30.787Z,98802.09
2022-12-09T16:38:16.112Z,98798.38
2022-12-09T16:41:02.287Z,98795.91
2022-12-09T16:43:31.252Z,98795.09
2022-12-09T16:46:36.330Z,98788.88
2022-12-09T16:49:05.907Z,98794.50
2022-12-09T16:51:33.506Z,98794.50
2022-12-09T16:54:03.554Z,98787.25
2022-12-09T16:56:31.544Z,98778.38
2022-12-09T16:59:00.731Z,98772.16
2022-12-09T17:01:29.642Z,98771.91
2022-12-09T17:03:59.281Z,98775.66
2022-12-09T17:06:26.901Z,98783.75
2022-12-09T17:08:55.971Z,98779.41
2022-12-09T17:11:24.958Z,98781.28
2022-12-09T17:13:53.290Z,98784.78
2022-12-09T17:20:02.199Z,98782.94
2022-12-09T17:22:29.872Z,98786.44
2022-12-09T17:24:58.221Z,98781.28
2022-12-09T17:27:27.187Z,98788.06
2022-12-09T17:29:55.522Z,98789.72
2022-12-09T17:36:04.436Z,98783.25
2022-12-09T17:38:33.198Z,98782.22
2022-12-09T17:41:03.624Z,98783.06
2022-12-09T17:43:33.543Z,98762.34
2022-12-09T17:46:50.244Z,98767.72
2022-12-09T17:49:19.443Z,98766.06
2022-12-09T17:51:47.116Z,98752.03
2022-12-09T17:54:15.591Z,98754.72
2022-12-09T17:56:46.607Z,98754.72
2022-12-09T17:59:17.069Z,98746.66
2022-12-09T18:01:46.268Z,98745.00
2022-12-09T18:04:15.415Z,98755.75
2022-12-09T18:06:49.427Z,98750.38
2022-12-09T18:09:20.427Z,98755.75
2022-12-09T18:11:48.065Z,98749.56
2022-12-09T18:14:17.815Z,98741.50
2022-12-09T18:16:49.104Z,98728.84
2022-12-09T18:19:19.321Z,98742.31
2022-12-09T18:21:46.923Z,98721.84
2022-12-09T18:24:15.474Z,98718.09
2022-12-09T18:26:43.293Z,98718.09
2022-12-09T18:29:11.872Z,98711.06
2022-12-09T18:31:59.061Z,98710.28
2022-12-09T18:34:29.382Z,98712.13
2022-12-09T18:36:56.999Z,98708.38
2022-12-09T18:39:25.389Z,98718.09
2022-12-09T18:41:53.005Z,98719.72
2022-12-09T18:44:21.363Z,98731.31
2022-12-09T18:47:09.428Z,98727.34
2022-12-09T18:49:38.346Z,98740.00
2022-12-09T18:52:06.199Z,98734.34
2022-12-09T18:54:34.659Z,98726.28
2022-12-09T18:57:03.890Z,98729.78
2022-12-09T18:59:33.555Z,98732.47
2022-12-09T19:02:11.740Z,98730.84
2022-12-09T19:04:40.333Z,98723.84
2022-12-09T19:07:10.321Z,98719.28
2022-12-09T19:09:40.753Z,98715.50
2022-12-09T19:12:44.878Z,98712.00
2022-12-09T19:14:57.005Z,98718.19
2022-12-09T19:18:07.267Z,98723.56
2022-12-09T19:20:37.003Z,98725.22
2022-12-09T19:23:04.939Z,98730.63
2022-12-09T19:25:37.348Z,98732.47
2022-12-09T19:28:05.076Z,98723.34
2022-12-09T19:30:34.534Z,98717.16
2022-12-09T19:33:22.211Z,98717.97
2022-12-09T19:35:52.024Z,98709.09
2022-12-09T19:38:19.642Z,98703.44
2022-12-09T19:40:48.059Z,98703.44
2022-12-09T19:43:15.654Z,98707.19
2022-12-09T19:45:44.570Z,98709.88
2022-12-09T19:48:12.176Z,98704.25
2022-12-09T19:50:40.636Z,98702.38
2022-12-09T19:53:09.703Z,98704.81
2022-12-09T19:55:38.111Z,98704.81
2022-12-09T19:58:05.952Z,98706.44
2022-12-09T20:00:39.731Z,98700.00
2022-12-09T20:06:31.668Z,98702.44
2022-12-09T20:09:02.311Z,98706.22
2022-12-09T20:11:31.451Z,98703.50
2022-12-09T20:13:59.511Z,98702.94
2022-12-09T20:16:27.995Z,98697.56
2022-12-09T20:19:13.985Z,98696.75
2022-12-09T20:21:42.513Z,98701.06
2022-12-09T20:24:11.723Z,98697.56
2022-12-09T20:26:40.243Z,98696.75
2022-12-09T20:29:08.248Z,98689.47
2022-12-09T20:31:37.162Z,98682.22
2022-12-09T20:34:05.491Z,98681.41
2022-12-09T20:36:34.436Z,98685.97
2022-12-09T20:39:02.384Z,98687.59
2022-12-09T20:41:32.196Z,98683.88
2022-12-09T20:44:00.130Z,98696.50
2022-12-09T20:46:29.294Z,98685.47
2022-12-09T20:52:58.430Z,98689.25
2022-12-09T20:55:26.897Z,98685.47
2022-12-09T20:57:55.864Z,98684.66
2022-12-09T21:00:23.584Z,98686.28
2022-12-09T21:03:10.617Z,98676.38
2022-12-09T21:05:39.493Z,98681.75
2022-12-09T21:08:10.712Z,98683.38
2022-12-09T21:10:39.250Z,98687.69
2022-12-09T21:13:08.319Z,98682.28
2022-12-09T21:15:36.880Z,98677.50
2022-12-09T21:18:47.272Z,98669.69
2022-12-09T21:21:17.487Z,98659.72
2022-12-09T21:23:45.217Z,98658.06
2022-12-09T21:26:14.843Z,98654.56
2022-12-09T21:28:43.989Z,98668.84
2022-12-09T21:31:19.753Z,98669.69
2022-12-09T21:33:47.938Z,98671.53
2022-12-09T21:36:15.969Z,98673.41
2022-12-09T21:38:44.903Z,98676.91
2022-12-09T21:41:14.397Z,98677.75
2022-12-09T21:43:43.527Z,98676.91
2022-12-09T21:46:15.061Z,98675.06
2022-12-09T21:49:08.570Z,98675.06
2022-12-09T21:51:36.934Z,98679.38
2022-12-09T21:54:04.723Z,98670.47
2022-12-09T21:56:39.700Z,98669.69
2022-12-09T21:59:08.795Z,98670.47
2022-12-09T22:01:37.071Z,98665.09
2022-12-09T22:04:06.013Z,98660.75
2022-12-09T22:06:34.471Z,98669.91
2022-12-09T22:09:02.943Z,98669.91
2022-12-09T22:11:36.543Z,98669.69
2022-12-09T22:14:04.360Z,98668.59
2022-12-09T22:16:36.534Z,98665.91
2022-12-09T22:19:04.714Z,98672.09
2022-12-09T22:21:34.372Z,98664.84
2022-12-09T22:24:02.875Z,98655.94
2022-12-09T22:26:31.425Z,98661.34
2022-12-09T22:29:00.354Z,98659.72
2022-12-09T22:31:28.314Z,98658.06
2022-12-09T22:33:58.248Z,98649.19
2022-12-09T22:36:25.917Z,98645.69
2022-12-09T22:38:54.329Z,98649.19
2022-12-09T22:41:22.361Z,98650.25
2022-12-09T22:43:50.748Z,98660.22
2022-12-09T22:46:18.752Z,98650.25
2022-12-09T22:48:47.397Z,98644.06
2022-12-09T22:51:16.888Z,98646.75
2022-12-09T22:53:45.430Z,98650.25
2022-12-09T22:56:13.128Z,98645.91
2022-12-09T22:58:43.403Z,98648.59
2022-12-09T23:01:11.974Z,98637.03
2022-12-09T23:07:33.179Z,98635.97
2022-12-09T23:10:01.487Z,98632.44
2022-12-09T23:12:30.399Z,98626.25
2022-12-09T23:14:58.094Z,98629.53
2022-12-09T23:17:26.574Z,98625.75
2022-12-09T23:19:54.306Z,98616.63
2022-12-09T23:22:23.284Z,98612.06
2022-12-09T23:24:52.313Z,98612.06
2022-12-09T23:27:20.485Z,98605.59
2022-12-09T23:29:48.143Z,98614.53
2022-12-09T23:32:16.300Z,98614.53
2022-12-09T23:34:43.919Z,98612.88
2022-12-09T23:37:14.638Z,98607.50
2022-12-09T23:39:42.789Z,98608.56
2022-12-09T23:42:11.860Z,98622.03
2022-12-09T23:44:39.601Z,98616.63
2022-12-09T23:47:07.258Z,98613.13
2022-12-09T23:49:35.058Z,98616.88
2022-12-09T23:52:03.002Z,98606.91
2022-12-09T23:54:30.658Z,98597.22
2022-12-09T23:56:58.647Z,98604.22
2022-12-09T23:59:27.671Z,98599.91
